Warning: Javascript must be enabled to use all the features on this page!


Page Loading - Please Wait...

* We've detected you're using a mobile device. Find our mobile dedicated web site here.
Click to hideNews Bulletins
Click to hide state-specific text

Explore Real-time Water Data Using New Products from USGS TXWSC

View over 750 USGS real-time stream, lake, reservoir, precipitation, and groundwater stations in context with current weather and hazard conditions on both desktop and mobile devices.

Click to go to the Texas Water Dashboard Click to go to the WATER On-the-go app

Follow @USGS_TexasFlood and @USGS_TexasRain on Twitter to get current water level and precipitation data during flooding or severe rainfall events.


* IMPORTANT: Next Generation Station Page

USGS 08025360 Sabine Rv at Toledo Bd Res nr Burkeville, TX

PROVISIONAL DATA SUBJECT TO REVISION

Click to hidestation-specific text
Funding for this site is provided by the cooperators / programs below:
Click to go to the Sabine River Compact Administration web page

Sabine River Compact Administration

Click to go to the Groundwater and Streamflow Information Program (GWSIP) web page

Groundwater and Streamflow Information Program (GWSIP)

Click to go to the Cooperative Matching Funds web page

Cooperative Matching Funds



retransmission, forecasts and summary of this location by the National Weather Service
Retransmission, forecasts and summary by the National Weather Service
This station managed by the Houston Field Unit.

Available Parameters Available Period
  
2020-01-27  2020-05-26
2020-01-27  2020-05-26
2020-01-27  2020-05-26
2020-01-27  2020-05-26







 (0)
 

  -- or --

 


 

Summary of all available data for this site
Instantaneous-data availability statement






Date / Time




Gage
height,
feet,
[Tailrace]




Dis-
charge,
ft3/s,
[Total
Spillway
Releases]




Dis-
charge,
ft3/s,
[Total
Discharge
from
Reservoir]




Dis-
charge,
ft3/s,
05/11/2020 00:00 CDT84.49P  320P  386P  66.5P  
05/11/2020 00:15 CDT84.49P  320P  386P  66.5P  
05/11/2020 00:30 CDT84.49P  320P  386P  66.5P  
05/11/2020 00:45 CDT84.49P  320P  386P  66.5P  
05/11/2020 01:00 CDT84.49P  320P  386P  66.5P  
05/11/2020 01:15 CDT84.49P  320P  386P  66.5P  
05/11/2020 01:30 CDT84.49P  320P  386P  66.5P  
05/11/2020 01:45 CDT84.49P  336P  402P  66.5P  
05/11/2020 02:00 CDT84.49P  320P  386P  66.5P  
05/11/2020 02:15 CDT84.49P  320P  386P  66.5P  
05/11/2020 02:30 CDT84.49P  320P  386P  66.5P  
05/11/2020 02:45 CDT84.49P  320P  386P  66.5P  
05/11/2020 03:00 CDT84.49P        66.5P  
05/11/2020 03:15 CDT84.49P  320P  386P  66.5P  
05/11/2020 03:30 CDT84.49P  320P  386P  66.5P  
05/11/2020 03:45 CDT84.49P  336P  402P  66.5P  
05/11/2020 04:00 CDT84.49P  336P  402P  66.5P  
05/11/2020 04:15 CDT84.49P  320P  386P  66.5P  
05/11/2020 04:30 CDT84.49P  320P  386P  66.5P  
05/11/2020 04:45 CDT84.49P  320P  386P  66.5P  
05/11/2020 05:00 CDT84.49P  320P  386P  66.5P  
05/11/2020 05:15 CDT84.49P  320P  386P  66.5P  
05/11/2020 05:30 CDT84.49P  320P  386P  66.5P  
05/11/2020 05:45 CDT84.49P  320P  386P  66.5P  
05/11/2020 06:00 CDT84.49P  336P  402P  66.5P  
05/11/2020 06:15 CDT84.49P  320P  386P  66.5P  
05/11/2020 06:30 CDT84.49P  320P  386P  66.5P  
05/11/2020 06:45 CDT84.49P  320P  386P  66.5P  
05/11/2020 07:00 CDT84.49P  320P  386P  66.5P  
05/11/2020 07:15 CDT84.49P  336P  402P  66.5P  
05/11/2020 07:30 CDT84.49P  336P  402P  66.5P  
05/11/2020 07:45 CDT84.48P  336P  402P  66.0P  
05/11/2020 08:00 CDT84.48P  336P  402P  66.0P  
05/11/2020 08:15 CDT84.48P  336P  402P  66.0P  
05/11/2020 08:30 CDT84.48P  336P  402P  66.0P  
05/11/2020 08:45 CDT84.48P  336P  402P  66.0P  
05/11/2020 09:00 CDT84.48P  336P  402P  66.0P  
05/11/2020 09:15 CDT84.48P  336P  402P  66.0P  
05/11/2020 09:30 CDT84.48P  336P  402P  66.0P  
05/11/2020 09:45 CDT84.48P  320P  386P  66.0P  
05/11/2020 10:00 CDT84.48P  336P  402P  66.0P  
05/11/2020 10:15 CDT84.48P  320P  386P  66.0P  
05/11/2020 10:30 CDT84.48P  320P  386P  66.0P  
05/11/2020 10:45 CDT84.48P  320P  386P  66.0P  
05/11/2020 11:00 CDT84.48P  336P  402P  66.0P  
05/11/2020 11:15 CDT84.48P  320P  386P  66.0P  
05/11/2020 11:30 CDT84.48P  304P  370P  66.0P  
05/11/2020 11:45 CDT84.48P  320P  386P  66.0P  
05/11/2020 12:00 CDT84.48P  304P  370P  66.0P  
05/11/2020 12:15 CDT84.48P  320P  386P  66.0P  
05/11/2020 12:30 CDT84.48P  320P  386P  66.0P  
05/11/2020 12:45 CDT84.48P  304P  370P  66.0P  
05/11/2020 13:00 CDT84.48P  320P  386P  66.0P  
05/11/2020 13:15 CDT84.48P  304P  370P  66.0P  
05/11/2020 13:30 CDT84.48P  320P  386P  66.0P  
05/11/2020 13:45 CDT84.48P  320P  386P  66.0P  
05/11/2020 14:00 CDT84.48P  304P  370P  66.0P  
05/11/2020 14:15 CDT84.48P  304P  370P  66.0P  
05/11/2020 14:30 CDT84.48P  304P  370P  66.0P  
05/11/2020 14:45 CDT84.48P  289P  355P  66.0P  
05/11/2020 15:00 CDT89.56P  289P  7,570P  7,280P  
05/11/2020 15:15 CDT91.66P  289P  11,700P  11,400P  
05/11/2020 15:30 CDT91.70P  289P  11,700P  11,500P  
05/11/2020 15:45 CDT91.70P  304P  11,800P  11,500P  
05/11/2020 16:00 CDT91.68P  304P  11,700P  11,400P  
05/11/2020 16:15 CDT91.72P  304P  11,800P  11,500P  
05/11/2020 16:30 CDT91.70P  304P  11,800P  11,500P  
05/11/2020 16:45 CDT91.71P  304P  11,800P  11,500P  
05/11/2020 17:00 CDT91.70P  304P  11,800P  11,500P  
05/11/2020 17:15 CDT91.71P  304P  11,800P  11,500P  
05/11/2020 17:30 CDT91.70P  304P  11,800P  11,500P  
05/11/2020 17:45 CDT91.72P  304P  11,800P  11,500P  
05/11/2020 18:00 CDT91.69P  304P  11,700P  11,400P  
05/11/2020 18:15 CDT91.73P  304P  11,800P  11,500P  
05/11/2020 18:30 CDT91.69P  304P  11,700P  11,400P  
05/11/2020 18:45 CDT91.71P  320P  11,800P  11,500P  
05/11/2020 19:00 CDT91.72P  320P  11,800P  11,500P  
05/11/2020 19:15 CDT91.73P  320P  11,800P  11,500P  
05/11/2020 19:30 CDT91.71P  304P  11,800P  11,500P  
05/11/2020 19:45 CDT91.72P  304P  11,800P  11,500P  
05/11/2020 20:00 CDT91.73P  304P  11,800P  11,500P  
05/11/2020 20:15 CDT91.72P  304P  11,800P  11,500P  
05/11/2020 20:30 CDT91.71P  304P  11,800P  11,500P  
05/11/2020 20:45 CDT91.73P  320P  11,800P  11,500P  
05/11/2020 21:00 CDT86.99P  304P  2,410P  2,110P  
05/11/2020 21:15 CDT85.78P  304P  1,040P  734P  
05/11/2020 21:30 CDT85.12P  320P  608P  289P  
05/11/2020 21:45 CDT84.87P  320P  493P  173P  
05/11/2020 22:00 CDT84.60P  320P  401P  81.2P  
05/11/2020 22:15 CDT84.54P  320P  390P  70.4P  
05/11/2020 22:30 CDT84.54P  320P  390P  70.4P  
05/11/2020 22:45 CDT84.53P  320P  389P  69.5P  
05/11/2020 23:00 CDT84.53P  320P  389P  69.5P  
05/11/2020 23:15 CDT84.52P  319P  388P  68.5P  
05/11/2020 23:30 CDT84.52P  319P  388P  68.5P  
05/11/2020 23:45 CDT84.52P  319P  388P  68.5P  

Explanation
  P  Provisional data subject to revision.